Balsam Grove, NC (28708)

12:26 PM EDT on April 25, 2018 (GMT -0400)
Pisgah West | | Change Station
Active Advisory: Flood Warning

Elev 2875 ft 35.23 °N, 82.87 °W | Updated 57 minutes ago

Overcast
Overcast
62.2 °F
Feels Like 62.2 °F
N
2.0
Wind Variable Wind from WSW
Gusts 7.0 mph

Today
High -- | Low -- °F
--% Chance of Precip.
Yesterday
High -- | Low -- °F
Precip. -- in
Pressure 29.84 in
Visibility 10.0 miles
Clouds Overcast 3600 ft
Dew Point 50 °F
Humidity 66%
Rainfall 0.00 in
Snow Depth Not available.
6:46 AM 8:12 PM
Waxing Gibbous, 79% visible
METAR KAVL 251554Z 35013G19KT 10SM OVC036 17/09 A2989 RMK AO2 SLP105 T01670089
Pressure 29.84 in
Visibility 10.0 miles
Clouds Overcast 3600 ft
Dew Point 50 °F
Humidity 66%
Rainfall 0.00 in
Snow Depth Not available.
6:46 AM 8:12 PM
Waxing Gibbous, 79% visible
METAR KAVL 251554Z 35013G19KT 10SM OVC036 17/09 A2989 RMK AO2 SLP105 T01670089

Get Your Daily Forecast Email!

Thanks for signing up!

Be on the lookout for a verification email in your inbox.

You'll start receiving severe weather alerts in your inbox..

×

10-Day Weather Forecast

Almanac

Astronomy

Apr. 25, 2018 Rise Set
Actual Time
Civil Twilight
Nautical Twilight
Astronomical Twilight
Moon
Length of Visible Light
Length of Day
Tomorrow will be .
, % of the Moon is Illuminated

Today's Extremes

State Highs State Lows

Community

WunderPhotos

Category 6

Welcome to Category 6. This is the collective home for Weather Underground's featured writeups by Dr. Jeff Masters (right), Bob Henson (left), Chris Burt, and other regular contributors.

Nearby

Air Quality

  Air Quality AQ Index Pollutant
Not available.

Snow Depth

Station Depth Elevation

Earthquake Activity

City Distance Mag. Time & Date
Minimum magnitude displayed is 2.5.

Coastal Water Temperatures

Place Temperature

Stations

Nearby Weather Stations

Station Location Temp. Windchill Dew Point Humidity Wind Precip. Elev Updated Type
                   

Watches & Warnings

Flood Warning
Issued: 10:13 AM EDT Apr. 25, 2018 – National Weather Service

The Flood Warning continues for
the French Broad River at Blantyre.
* Until late tonight.
* At 9:46 am Wednesday the stage was 16.1 feet.
* Flood stage is 16.0 feet.
* Minor flooding is occurring and minor flooding is forecast.
* Forecast... the river will continue to fall to below flood stage by
this evening.
* Impact... at 16.0 feet... minor flood stage. Farmland flooding
continues on both sides of the French Broad River. Floodwaters
begin to impact boat access areas at Grove bridge Rd. And Crab
Creek Rd.


Lat... Lon 3538 8257 3537 8250 3529 8254 3521 8267
      3526 8274 3534 8261


Carroll